Jarcevo, Russia
Current Conditions -  °F | °C
As of 5:00 PM on Sunday 25 Jan 2015 (Local Time) from UNKL Reporting Station
Clear Clear  
Wind Chill: -20°   Ceiling: Unl
Heat Index: -6°   Visibility: 6mi
Dew Point: -15°   Wind: 7mph
Humidity: 65%   Direction: 250°WSW
Pressure: 30.86"   Gusts: 13mph
Location:  60.25°N, 90.23°E
Report Text: UNKL 251000Z 25003G06MPS CAVOK M21/M26 Q1045 NOSIG RMK QFE75729////65
Loading
Personal Weather Stations






























Interactive Weather Map New forecast layout! Learn more

10-Day Weather Forecast

Advertisements
Track Severe Weather on mobile